createdAt,value
2022-08-30T00:01:14.070Z,51.96
2022-08-30T00:03:45.507Z,51.94
2022-08-30T00:06:12.970Z,51.37
2022-08-30T00:08:40.982Z,51.52
2022-08-30T00:11:09.928Z,51.36
2022-08-30T00:13:40.242Z,50.83
2022-08-30T00:16:07.238Z,50.65
2022-08-30T00:18:34.646Z,51.25
2022-08-30T00:21:01.265Z,51.21
2022-08-30T00:23:27.835Z,50.95
2022-08-30T00:25:54.270Z,50.68
2022-08-30T00:28:20.825Z,50.55
2022-08-30T00:30:47.305Z,50.33
2022-08-30T00:33:14.216Z,50.64
2022-08-30T00:35:41.417Z,51.10
2022-08-30T00:38:08.424Z,50.90
2022-08-30T00:40:35.207Z,51.78
2022-08-30T00:43:05.614Z,51.42
2022-08-30T00:45:42.548Z,52.03
2022-08-30T00:48:09.162Z,50.86
2022-08-30T00:50:44.493Z,51.31
2022-08-30T00:53:13.722Z,50.91
2022-08-30T00:55:42.077Z,50.82
2022-08-30T00:58:13.293Z,51.44
2022-08-30T01:00:39.859Z,51.37
2022-08-30T01:03:08.441Z,50.77
2022-08-30T01:05:38.607Z,50.99
2022-08-30T01:08:05.866Z,51.04
2022-08-30T01:10:34.375Z,51.09
2022-08-30T01:13:00.945Z,52.03
2022-08-30T01:15:27.410Z,52.45
2022-08-30T01:17:54.070Z,52.95
2022-08-30T01:20:26.409Z,52.71
2022-08-30T01:22:52.884Z,52.53
2022-08-30T01:25:21.222Z,52.67
2022-08-30T01:27:51.224Z,52.81
2022-08-30T01:30:17.836Z,53.53
2022-08-30T01:32:46.150Z,53.15
2022-08-30T01:35:17.527Z,53.57
2022-08-30T01:37:44.615Z,53.74
2022-08-30T01:40:12.433Z,53.83
2022-08-30T01:42:39.147Z,53.90
2022-08-30T01:45:06.567Z,53.78
2022-08-30T01:47:33.160Z,53.87
2022-08-30T01:49:59.948Z,53.91
2022-08-30T01:52:27.125Z,54.11
2022-08-30T01:54:53.789Z,54.35
2022-08-30T01:57:22.207Z,54.54
2022-08-30T01:59:50.211Z,55.25
2022-08-30T02:02:18.455Z,55.04
2022-08-30T02:04:45.058Z,54.98
2022-08-30T02:07:11.638Z,55.16
2022-08-30T02:09:38.044Z,55.25
2022-08-30T02:12:07.394Z,55.12
2022-08-30T02:14:37.395Z,55.42
2022-08-30T02:17:07.782Z,55.58
2022-08-30T02:19:34.413Z,55.67
2022-08-30T02:22:00.990Z,55.65
2022-08-30T02:24:27.413Z,55.75
2022-08-30T02:26:54.202Z,55.66
2022-08-30T02:29:21.512Z,55.72
2022-08-30T02:31:48.190Z,55.89
2022-08-30T02:34:15.293Z,56.09
2022-08-30T02:36:41.965Z,56.58
2022-08-30T02:39:09.358Z,56.34
2022-08-30T02:41:35.974Z,56.03
2022-08-30T02:44:02.457Z,56.08
2022-08-30T02:46:31.068Z,56.27
2022-08-30T02:49:13.154Z,56.47
2022-08-30T02:51:47.853Z,56.33
2022-08-30T02:54:20.106Z,56.25
2022-08-30T02:56:47.941Z,56.21
2022-08-30T02:59:15.331Z,56.12
2022-08-30T03:01:42.026Z,56.38
2022-08-30T03:04:09.318Z,56.22
2022-08-30T03:06:35.912Z,56.20
2022-08-30T03:09:02.417Z,56.02
2022-08-30T03:11:29.823Z,55.92
2022-08-30T03:13:56.644Z,55.88
2022-08-30T03:16:23.295Z,55.94
2022-08-30T03:18:49.929Z,56.20
2022-08-30T03:21:16.392Z,56.56
2022-08-30T03:23:43.012Z,56.05
2022-08-30T03:26:12.602Z,55.87
2022-08-30T03:28:39.339Z,56.36
2022-08-30T03:31:06.112Z,56.04
2022-08-30T03:33:32.693Z,56.50
2022-08-30T03:35:59.157Z,55.98
2022-08-30T03:38:26.148Z,56.10
2022-08-30T03:40:52.776Z,56.15
2022-08-30T03:43:19.504Z,56.08
2022-08-30T03:45:45.985Z,56.09
2022-08-30T03:48:13.048Z,55.85
2022-08-30T03:50:40.557Z,56.55
2022-08-30T03:53:07.305Z,56.66
2022-08-30T03:55:34.168Z,56.50
2022-08-30T03:58:00.746Z,56.35
2022-08-30T04:00:27.193Z,56.50
2022-08-30T04:02:53.819Z,56.59
2022-08-30T04:05:20.339Z,56.52
2022-08-30T04:07:46.942Z,56.72
2022-08-30T04:10:13.397Z,56.44
2022-08-30T04:12:39.985Z,56.46
2022-08-30T04:15:07.724Z,56.36
2022-08-30T04:17:34.131Z,56.44
2022-08-30T04:20:00.732Z,56.23
2022-08-30T04:22:27.136Z,56.41
2022-08-30T04:24:53.800Z,56.12
2022-08-30T04:27:20.523Z,56.45
2022-08-30T04:29:47.706Z,56.16
2022-08-30T04:32:14.718Z,56.23
2022-08-30T04:34:41.325Z,55.91
2022-08-30T04:37:09.969Z,56.07
2022-08-30T04:39:37.241Z,56.50
2022-08-30T04:42:04.178Z,56.22
2022-08-30T04:44:32.123Z,56.04
2022-08-30T04:46:59.261Z,55.81
2022-08-30T04:49:25.879Z,55.54
2022-08-30T04:51:52.283Z,56.02
2022-08-30T04:54:21.131Z,55.42
2022-08-30T04:56:47.761Z,55.31
2022-08-30T04:59:14.181Z,54.83
2022-08-30T05:01:45.356Z,54.54
2022-08-30T05:04:13.190Z,54.66
2022-08-30T05:06:39.826Z,54.01
2022-08-30T05:09:06.409Z,54.03
2022-08-30T05:11:33.027Z,53.66
2022-08-30T05:13:59.610Z,54.02
2022-08-30T05:16:28.996Z,53.33
2022-08-30T05:18:55.789Z,53.35
2022-08-30T05:21:26.601Z,53.32
2022-08-30T05:23:54.779Z,53.41
2022-08-30T05:26:31.895Z,51.88
2022-08-30T05:28:58.484Z,51.69
2022-08-30T05:31:30.150Z,50.79
2022-08-30T05:33:57.053Z,47.32
2022-08-30T05:36:25.537Z,47.51
2022-08-30T05:38:52.651Z,47.65
2022-08-30T05:41:20.739Z,47.95
2022-08-30T05:43:48.038Z,46.13
2022-08-30T05:46:19.856Z,45.88
2022-08-30T05:48:47.006Z,45.89
2022-08-30T05:51:18.547Z,44.70
2022-08-30T05:53:45.717Z,46.07
2022-08-30T05:56:13.462Z,45.50
2022-08-30T05:58:40.130Z,46.91
2022-08-30T06:01:06.944Z,46.97
2022-08-30T06:03:33.643Z,47.71
2022-08-30T06:06:00.881Z,46.93
2022-08-30T06:08:27.513Z,46.82
2022-08-30T06:10:54.118Z,46.56
2022-08-30T06:13:20.754Z,47.35
2022-08-30T06:15:47.436Z,47.27
2022-08-30T06:18:14.195Z,47.95
2022-08-30T06:20:42.381Z,49.12
2022-08-30T06:23:09.973Z,47.56
2022-08-30T06:25:41.987Z,48.27
2022-08-30T06:28:09.412Z,47.75
2022-08-30T06:30:36.691Z,47.40
2022-08-30T06:33:03.371Z,47.32
2022-08-30T06:35:32.662Z,46.20
2022-08-30T06:38:02.020Z,45.90
2022-08-30T06:40:28.722Z,44.68
2022-08-30T06:42:55.682Z,42.57
2022-08-30T06:45:22.395Z,40.79
2022-08-30T06:47:49.262Z,40.01
2022-08-30T06:50:16.818Z,38.36
2022-08-30T06:52:44.469Z,36.12
2022-08-30T06:55:12.083Z,34.99
2022-08-30T06:57:38.990Z,34.93
2022-08-30T07:00:07.407Z,33.34
2022-08-30T07:02:34.117Z,32.62
2022-08-30T07:05:02.254Z,32.45
2022-08-30T07:07:28.871Z,32.78
2022-08-30T07:09:56.182Z,32.01
2022-08-30T07:12:23.084Z,31.57
2022-08-30T07:14:49.743Z,29.59
2022-08-30T07:17:35.051Z,30.38
2022-08-30T07:20:02.692Z,29.99
2022-08-30T07:22:29.301Z,31.49
2022-08-30T07:24:55.919Z,31.84
2022-08-30T07:27:22.612Z,31.98
2022-08-30T07:29:49.885Z,31.96
2022-08-30T07:32:16.636Z,32.45
2022-08-30T07:34:43.277Z,31.93
2022-08-30T07:37:09.917Z,31.20
2022-08-30T07:39:47.849Z,32.20
2022-08-30T07:42:15.038Z,33.03
2022-08-30T07:44:41.640Z,33.37
2022-08-30T07:47:08.284Z,33.93
2022-08-30T07:49:34.890Z,33.78
2022-08-30T07:52:01.635Z,33.20
2022-08-30T07:54:28.517Z,33.74
2022-08-30T07:56:55.917Z,33.19
2022-08-30T07:59:23.362Z,33.34
2022-08-30T08:01:50.122Z,33.01
2022-08-30T08:04:19.473Z,32.51
2022-08-30T08:06:46.071Z,32.48
2022-08-30T08:09:12.700Z,33.45
2022-08-30T08:11:41.426Z,32.89
2022-08-30T08:14:08.215Z,31.34
2022-08-30T08:16:35.750Z,29.82
2022-08-30T08:19:02.837Z,29.36
2022-08-30T08:21:29.476Z,29.45
2022-08-30T08:23:56.127Z,28.30
2022-08-30T08:26:22.756Z,28.89
2022-08-30T08:28:49.428Z,29.45
2022-08-30T08:31:31.428Z,28.93
2022-08-30T08:36:30.333Z,28.86
2022-08-30T08:38:56.972Z,29.75
2022-08-30T08:41:46.651Z,30.67
2022-08-30T08:44:51.153Z,30.37
2022-08-30T08:48:00.426Z,30.49
2022-08-30T08:50:31.079Z,30.92
2022-08-30T08:53:45.525Z,31.36
2022-08-30T08:59:45.673Z,28.59
2022-08-30T09:02:44.301Z,26.87
2022-08-30T09:05:13.692Z,25.84
2022-08-30T09:07:42.847Z,25.42
2022-08-30T09:10:09.473Z,24.59
2022-08-30T09:12:36.072Z,24.08
2022-08-30T09:15:10.593Z,23.92
2022-08-30T09:18:01.374Z,22.69
2022-08-30T09:20:43.292Z,21.06
2022-08-30T09:23:17.418Z,20.42
2022-08-30T09:26:00.663Z,20.51
2022-08-30T09:28:32.744Z,20.43
2022-08-30T09:30:59.263Z,21.21
2022-08-30T09:33:25.915Z,21.64
2022-08-30T09:35:54.186Z,21.32
2022-08-30T09:38:29.466Z,21.95
2022-08-30T09:40:58.288Z,23.65
2022-08-30T09:43:25.944Z,22.78
2022-08-30T09:46:00.796Z,23.26
2022-08-30T09:48:44.906Z,22.89
2022-08-30T09:51:14.998Z,22.36
2022-08-30T09:54:31.103Z,22.73
2022-08-30T09:57:03.782Z,22.42
2022-08-30T09:59:57.759Z,23.04
2022-08-30T10:02:47.125Z,21.75
2022-08-30T10:05:50.739Z,20.89
2022-08-30T10:08:25.806Z,20.10
2022-08-30T10:11:01.386Z,19.93
2022-08-30T10:13:47.621Z,19.63
2022-08-30T10:16:24.974Z,19.15
2022-08-30T10:18:58.684Z,18.20
2022-08-30T10:21:31.057Z,18.63
2022-08-30T10:24:08.722Z,18.90
2022-08-30T10:26:38.571Z,19.17
2022-08-30T10:29:31.963Z,19.32
2022-08-30T10:32:10.971Z,20.36
2022-08-30T10:34:45.376Z,21.92
2022-08-30T10:37:13.662Z,22.31
2022-08-30T10:39:48.904Z,22.92
2022-08-30T10:42:26.681Z,23.38
2022-08-30T10:45:02.125Z,23.45
2022-08-30T10:47:37.311Z,23.13
2022-08-30T10:50:07.111Z,22.78
2022-08-30T10:52:35.639Z,22.33
2022-08-30T10:55:10.436Z,22.19
2022-08-30T10:57:37.354Z,21.90
2022-08-30T11:00:10.921Z,20.79
2022-08-30T11:02:46.634Z,20.75
2022-08-30T11:05:28.892Z,21.18
2022-08-30T11:08:22.990Z,21.29
2022-08-30T11:11:05.213Z,20.85
2022-08-30T11:13:32.335Z,20.95
2022-08-30T11:16:03.280Z,20.91
2022-08-30T11:18:34.758Z,20.35
2022-08-30T11:21:37.671Z,20.74
2022-08-30T11:24:21.915Z,21.08
2022-08-30T11:26:48.598Z,21.40
2022-08-30T11:29:27.994Z,21.08
2022-08-30T11:31:55.060Z,21.83
2022-08-30T11:34:49.456Z,21.51
2022-08-30T11:37:36.028Z,21.79
2022-08-30T11:40:15.590Z,22.51
2022-08-30T11:42:45.577Z,22.55
2022-08-30T11:45:25.102Z,22.90
2022-08-30T11:47:56.281Z,22.26
2022-08-30T11:50:29.299Z,23.31
2022-08-30T11:53:35.023Z,22.89
2022-08-30T11:56:21.340Z,22.98
2022-08-30T11:58:57.135Z,24.73
2022-08-30T12:01:50.927Z,23.23
2022-08-30T12:04:25.249Z,23.90
2022-08-30T12:06:57.126Z,25.03
2022-08-30T12:09:23.627Z,24.32
2022-08-30T12:11:58.052Z,23.82
2022-08-30T12:14:49.008Z,22.65
2022-08-30T12:18:03.646Z,22.79
2022-08-30T12:20:42.122Z,22.55
2022-08-30T12:23:23.894Z,22.03
2022-08-30T12:25:50.749Z,22.40
2022-08-30T12:28:22.722Z,22.45
2022-08-30T12:30:49.594Z,22.57
2022-08-30T12:33:29.140Z,22.70
2022-08-30T12:35:58.276Z,23.54
2022-08-30T12:38:27.630Z,21.75
2022-08-30T12:40:57.880Z,22.01
2022-08-30T12:43:40.195Z,22.10
2022-08-30T12:46:10.851Z,22.45
2022-08-30T12:48:39.085Z,23.00
2022-08-30T12:51:07.130Z,22.27
2022-08-30T12:53:36.210Z,22.58
2022-08-30T12:56:04.814Z,22.63
2022-08-30T12:58:35.603Z,22.75
2022-08-30T13:01:20.781Z,22.92
2022-08-30T13:04:18.923Z,22.96
2022-08-30T13:06:53.974Z,23.68
2022-08-30T13:09:23.906Z,22.85
2022-08-30T13:11:53.804Z,23.38
2022-08-30T13:14:33.976Z,24.34
2022-08-30T13:17:25.636Z,24.14
2022-08-30T13:20:01.298Z,24.38
2022-08-30T13:22:27.909Z,24.81
2022-08-30T13:24:55.419Z,25.80
2022-08-30T13:27:22.243Z,24.81
2022-08-30T13:29:49.236Z,25.25
2022-08-30T13:32:16.179Z,25.76
2022-08-30T13:34:42.939Z,25.38
2022-08-30T13:40:13.041Z,26.37
2022-08-30T13:42:42.799Z,25.51
2022-08-30T13:47:59.583Z,26.58
2022-08-30T13:50:26.490Z,26.99
2022-08-30T13:52:54.199Z,26.73
2022-08-30T13:55:20.788Z,27.50
2022-08-30T13:57:56.054Z,26.92
2022-08-30T14:00:25.106Z,27.34
2022-08-30T14:02:57.663Z,26.96
2022-08-30T14:06:04.645Z,27.90
2022-08-30T14:11:12.623Z,28.01
2022-08-30T14:14:14.578Z,28.21
2022-08-30T14:16:27.157Z,27.87
2022-08-30T14:18:54.133Z,28.34
2022-08-30T14:21:21.303Z,27.24
2022-08-30T14:23:50.891Z,27.27
2022-08-30T14:26:18.993Z,27.85
2022-08-30T14:28:45.599Z,28.41
2022-08-30T14:31:12.815Z,28.44
2022-08-30T14:33:39.951Z,29.38
2022-08-30T14:36:12.490Z,29.08
2022-08-30T14:38:42.603Z,29.73
2022-08-30T14:41:10.269Z,29.87
2022-08-30T14:43:37.802Z,29.37
2022-08-30T14:46:05.641Z,29.89
2022-08-30T14:48:32.278Z,29.26
2022-08-30T14:50:58.898Z,29.78
2022-08-30T14:53:25.525Z,29.97
2022-08-30T14:55:52.111Z,30.07
2022-08-30T14:58:19.153Z,30.86
2022-08-30T15:00:52.620Z,31.37
2022-08-30T15:03:19.430Z,30.76
2022-08-30T15:05:50.615Z,31.25
2022-08-30T15:08:19.778Z,30.78
2022-08-30T15:10:47.494Z,31.08
2022-08-30T15:13:14.307Z,30.57
2022-08-30T15:15:42.128Z,31.08
2022-08-30T15:18:08.892Z,31.74
2022-08-30T15:20:35.630Z,31.02
2022-08-30T15:23:02.267Z,30.96
2022-08-30T15:25:28.966Z,31.54
2022-08-30T15:27:55.607Z,31.42
2022-08-30T15:30:22.995Z,31.06
2022-08-30T15:32:49.617Z,31.41
2022-08-30T15:35:16.294Z,31.62
2022-08-30T15:37:43.150Z,31.68
2022-08-30T15:40:10.367Z,31.73
2022-08-30T15:42:37.068Z,31.18
2022-08-30T15:45:03.843Z,32.00
2022-08-30T15:47:30.591Z,31.84
2022-08-30T15:50:03.024Z,31.12
2022-08-30T15:52:32.964Z,31.18
2022-08-30T15:54:59.885Z,30.78
2022-08-30T15:57:26.627Z,30.33
2022-08-30T15:59:54.684Z,30.50
2022-08-30T16:02:21.827Z,30.67
2022-08-30T16:04:54.547Z,30.68
2022-08-30T16:07:21.294Z,31.06
2022-08-30T16:09:50.311Z,30.47
2022-08-30T16:12:23.718Z,30.85
2022-08-30T16:14:56.531Z,30.52
2022-08-30T16:17:27.708Z,31.02
2022-08-30T16:19:58.483Z,31.16
2022-08-30T16:22:29.610Z,31.42
2022-08-30T16:24:59.216Z,31.56
2022-08-30T16:27:26.188Z,31.55
2022-08-30T16:29:52.908Z,31.30
2022-08-30T16:32:23.209Z,31.26
2022-08-30T16:34:50.495Z,31.55
2022-08-30T16:37:19.377Z,31.42
2022-08-30T16:39:47.334Z,31.65
2022-08-30T16:42:15.111Z,31.67
2022-08-30T16:44:48.329Z,32.23
2022-08-30T16:47:16.436Z,31.87
2022-08-30T16:49:46.130Z,31.85
2022-08-30T16:52:12.795Z,31.52
2022-08-30T16:54:39.511Z,31.07
2022-08-30T16:57:06.619Z,30.46
2022-08-30T16:59:36.394Z,30.12
2022-08-30T17:02:11.735Z,30.03
2022-08-30T17:04:41.050Z,30.80
2022-08-30T17:07:07.900Z,29.94
2022-08-30T17:09:40.973Z,30.03
2022-08-30T17:12:13.156Z,30.19
2022-08-30T17:14:42.966Z,30.62
2022-08-30T17:17:14.079Z,30.86
2022-08-30T17:19:43.060Z,30.56
2022-08-30T17:22:12.773Z,30.21
2022-08-30T17:24:39.873Z,30.31
2022-08-30T17:27:07.115Z,30.50
2022-08-30T17:29:36.876Z,29.92
2022-08-30T17:32:07.649Z,29.68
2022-08-30T17:34:35.697Z,29.94
2022-08-30T17:37:02.593Z,29.48
2022-08-30T17:39:30.544Z,29.98
2022-08-30T17:41:57.980Z,31.07
2022-08-30T17:44:28.650Z,30.16
2022-08-30T17:46:56.085Z,30.47
2022-08-30T17:49:23.378Z,30.50
2022-08-30T17:51:54.224Z,30.73
2022-08-30T17:54:24.335Z,30.29
2022-08-30T17:56:52.279Z,30.44
2022-08-30T17:59:19.252Z,30.30
2022-08-30T18:01:51.708Z,30.58
2022-08-30T18:04:19.764Z,30.90
2022-08-30T18:06:47.457Z,30.33
2022-08-30T18:09:14.293Z,30.58
2022-08-30T18:11:40.899Z,31.08
2022-08-30T18:14:10.822Z,31.45
2022-08-30T18:16:38.085Z,30.93
2022-08-30T18:19:05.093Z,30.90
2022-08-30T18:21:36.509Z,31.01
2022-08-30T18:24:03.346Z,31.21
2022-08-30T18:26:31.915Z,31.02
2022-08-30T18:28:59.273Z,31.45
2022-08-30T18:31:27.004Z,31.72
2022-08-30T18:33:54.965Z,31.38
2022-08-30T18:36:21.819Z,31.36
2022-08-30T18:38:48.963Z,31.22
2022-08-30T18:41:16.604Z,30.88
2022-08-30T18:43:43.545Z,30.79
2022-08-30T18:46:14.081Z,32.59
2022-08-30T18:48:41.221Z,31.48
2022-08-30T18:51:12.227Z,31.77
2022-08-30T18:53:38.830Z,32.08
2022-08-30T18:56:07.805Z,31.27
2022-08-30T18:58:34.683Z,31.45
2022-08-30T19:01:03.494Z,31.38
2022-08-30T19:03:33.646Z,31.33
2022-08-30T19:06:07.339Z,31.89
2022-08-30T19:08:34.248Z,31.26
2022-08-30T19:11:05.074Z,31.55
2022-08-30T19:13:34.518Z,32.71
2022-08-30T19:16:04.185Z,31.75
2022-08-30T19:18:30.814Z,32.00
2022-08-30T19:20:57.447Z,31.68
2022-08-30T19:23:26.985Z,32.38
2022-08-30T19:25:54.202Z,31.93
2022-08-30T19:28:21.167Z,32.14
2022-08-30T19:30:47.791Z,32.53
2022-08-30T19:33:14.429Z,32.94
2022-08-30T19:35:41.096Z,33.06
2022-08-30T19:38:07.714Z,34.03
2022-08-30T19:40:34.489Z,33.22
2022-08-30T19:43:01.330Z,33.18
2022-08-30T19:45:27.926Z,33.05
2022-08-30T19:47:54.852Z,33.59
2022-08-30T19:50:21.741Z,35.08
2022-08-30T19:52:53.689Z,34.09
2022-08-30T19:55:23.719Z,34.17
2022-08-30T19:57:55.029Z,34.38
2022-08-30T20:00:23.426Z,34.68
2022-08-30T20:02:50.811Z,34.02
2022-08-30T20:05:18.256Z,35.57
2022-08-30T20:07:45.035Z,34.34
2022-08-30T20:10:13.635Z,34.75
2022-08-30T20:12:45.245Z,34.90
2022-08-30T20:15:14.650Z,35.50
2022-08-30T20:18:02.445Z,35.02
2022-08-30T20:20:30.441Z,35.10
2022-08-30T20:22:57.108Z,35.34
2022-08-30T20:25:23.919Z,35.27
2022-08-30T20:27:50.555Z,36.53
2022-08-30T20:30:17.428Z,36.33
2022-08-30T20:32:46.674Z,35.97
2022-08-30T20:35:16.437Z,35.73
2022-08-30T20:37:43.418Z,36.42
2022-08-30T20:40:15.010Z,37.12
2022-08-30T20:42:45.424Z,36.27
2022-08-30T20:45:15.155Z,36.74
2022-08-30T20:47:42.935Z,36.54
2022-08-30T20:50:13.838Z,36.09
2022-08-30T20:52:40.838Z,36.96
2022-08-30T20:55:08.276Z,36.55
2022-08-30T20:57:34.969Z,37.63
2022-08-30T21:00:01.765Z,37.38
2022-08-30T21:02:28.460Z,37.57
2022-08-30T21:04:55.186Z,37.59
2022-08-30T21:07:21.910Z,36.62
2022-08-30T21:09:48.615Z,37.34
2022-08-30T21:12:18.090Z,36.73
2022-08-30T21:14:44.693Z,36.91
2022-08-30T21:17:13.701Z,36.74
2022-08-30T21:19:43.861Z,37.00
2022-08-30T21:22:11.015Z,37.64
2022-08-30T21:24:37.658Z,37.83
2022-08-30T21:27:04.369Z,37.74
2022-08-30T21:29:32.986Z,38.36
2022-08-30T21:31:59.599Z,38.47
2022-08-30T21:34:26.229Z,39.09
2022-08-30T21:36:52.867Z,38.91
2022-08-30T21:39:23.952Z,39.33
2022-08-30T21:41:52.263Z,39.12
2022-08-30T21:44:20.945Z,38.99
2022-08-30T21:46:47.772Z,39.57
2022-08-30T21:49:15.972Z,39.54
2022-08-30T21:51:43.492Z,39.77
2022-08-30T21:54:10.986Z,39.59
2022-08-30T21:56:38.951Z,39.26
2022-08-30T21:59:05.966Z,39.36
2022-08-30T22:01:32.982Z,39.57
2022-08-30T22:04:00.890Z,39.64
2022-08-30T22:06:30.880Z,39.90
2022-08-30T22:08:58.354Z,39.87
2022-08-30T22:11:25.722Z,40.17
2022-08-30T22:13:53.527Z,40.39
2022-08-30T22:16:20.190Z,40.02
2022-08-30T22:18:46.913Z,39.67
2022-08-30T22:21:15.640Z,39.74
2022-08-30T22:23:42.288Z,40.55
2022-08-30T22:26:09.576Z,39.73
2022-08-30T22:28:36.213Z,39.92
2022-08-30T22:31:04.193Z,39.73
2022-08-30T22:33:30.824Z,40.55
2022-08-30T22:35:57.438Z,40.11
2022-08-30T22:38:24.038Z,39.51
2022-08-30T22:40:51.444Z,39.01
2022-08-30T22:43:18.231Z,39.35
2022-08-30T22:45:45.335Z,39.63
2022-08-30T22:48:12.027Z,38.91
2022-08-30T22:50:38.704Z,38.86
2022-08-30T22:53:05.479Z,38.78
2022-08-30T22:55:32.089Z,39.45
2022-08-30T22:57:58.695Z,39.51
2022-08-30T23:00:25.286Z,40.11
2022-08-30T23:02:52.702Z,40.79
2022-08-30T23:05:20.733Z,40.80
2022-08-30T23:07:47.446Z,41.01
2022-08-30T23:10:14.137Z,41.64
2022-08-30T23:12:40.953Z,41.69
2022-08-30T23:15:09.090Z,42.02
2022-08-30T23:17:39.430Z,42.24
2022-08-30T23:20:07.426Z,42.84
2022-08-30T23:22:34.047Z,42.30
2022-08-30T23:25:19.442Z,43.26
2022-08-30T23:28:05.245Z,43.06
2022-08-30T23:30:50.909Z,43.75
2022-08-30T23:33:36.165Z,43.74
2022-08-30T23:36:28.813Z,43.98
2022-08-30T23:39:14.043Z,44.09
2022-08-30T23:41:59.581Z,43.80
2022-08-30T23:44:44.680Z,44.44
2022-08-30T23:47:29.715Z,44.63
2022-08-30T23:50:17.230Z,45.50
2022-08-30T23:53:02.576Z,45.97
2022-08-30T23:55:47.924Z,45.78
2022-08-30T23:58:33.391Z,45.38
